createdAt,value
2022-07-26T00:02:18.615Z,5.53
2022-07-26T00:04:46.914Z,5.18
2022-07-26T00:07:25.284Z,4.32
2022-07-26T00:10:13.173Z,7.03
2022-07-26T00:12:55.040Z,8.68
2022-07-26T00:15:27.917Z,6.75
2022-07-26T00:18:15.539Z,4.93
2022-07-26T00:21:07.733Z,8.82
2022-07-26T00:23:47.200Z,10.98
2022-07-26T00:26:38.729Z,9.05
2022-07-26T00:29:18.112Z,5.45
2022-07-26T00:31:50.117Z,5.55
2022-07-26T00:34:27.732Z,6.72
2022-07-26T00:37:20.652Z,5.72
2022-07-26T00:40:04.803Z,4.55
2022-07-26T00:42:47.105Z,6.25
2022-07-26T00:45:20.419Z,6.40
2022-07-26T00:47:53.143Z,7.90
2022-07-26T00:50:36.986Z,5.90
2022-07-26T00:55:55.875Z,5.85
2022-07-26T00:58:39.300Z,10.88
2022-07-26T01:01:17.851Z,6.78
2022-07-26T01:03:54.614Z,10.80
2022-07-26T01:06:27.473Z,4.93
2022-07-26T01:09:06.260Z,4.22
2022-07-26T01:11:54.436Z,10.60
2022-07-26T01:14:33.760Z,8.93
2022-07-26T01:17:23.804Z,6.90
2022-07-26T01:20:08.123Z,5.40
2022-07-26T01:22:52.678Z,14.75
2022-07-26T01:25:43.176Z,13.48
2022-07-26T01:28:19.786Z,7.80
2022-07-26T01:31:05.051Z,10.45
2022-07-26T01:33:41.932Z,10.40
2022-07-26T01:36:27.878Z,15.95
2022-07-26T01:39:09.405Z,9.60
2022-07-26T01:41:41.941Z,5.82
2022-07-26T01:44:26.087Z,6.60
2022-07-26T01:47:17.240Z,13.98
2022-07-26T01:49:55.200Z,11.40
2022-07-26T01:52:44.303Z,7.57
2022-07-26T01:55:24.437Z,11.90
2022-07-26T01:58:10.386Z,9.02
2022-07-26T02:00:54.056Z,7.65
2022-07-26T02:03:35.887Z,7.32
2022-07-26T02:06:10.410Z,6.47
2022-07-26T02:08:51.841Z,4.72
2022-07-26T02:11:53.879Z,5.72
2022-07-26T02:14:29.654Z,5.22
2022-07-26T02:17:14.675Z,8.05
2022-07-26T02:22:43.365Z,10.10
2022-07-26T02:25:17.960Z,7.88
2022-07-26T02:28:04.858Z,8.90
2022-07-26T02:30:45.720Z,6.60
2022-07-26T02:33:26.687Z,5.40
2022-07-26T02:36:05.895Z,7.53
2022-07-26T02:38:44.772Z,8.88
2022-07-26T02:41:36.109Z,8.27
2022-07-26T02:44:21.250Z,5.60
2022-07-26T02:47:07.628Z,7.65
2022-07-26T02:49:51.723Z,9.85
2022-07-26T02:52:40.737Z,10.53
2022-07-26T02:55:20.914Z,5.65
2022-07-26T02:58:05.610Z,20.45
2022-07-26T03:03:36.524Z,8.75
2022-07-26T03:06:17.415Z,12.68
2022-07-26T03:08:48.255Z,12.25
2022-07-26T03:11:26.495Z,9.93
2022-07-26T03:14:12.583Z,12.10
2022-07-26T03:17:13.805Z,6.22
2022-07-26T03:19:57.815Z,10.90
2022-07-26T03:22:45.644Z,8.05
2022-07-26T03:25:26.853Z,9.60
2022-07-26T03:28:07.850Z,9.25
2022-07-26T03:30:54.769Z,9.55
2022-07-26T03:33:41.630Z,12.40
2022-07-26T03:36:25.962Z,6.07
2022-07-26T03:39:09.737Z,13.95
2022-07-26T03:41:55.771Z,9.30
2022-07-26T03:44:50.899Z,17.77
2022-07-26T03:47:27.023Z,12.77
2022-07-26T03:49:57.029Z,12.07
2022-07-26T03:52:39.862Z,6.83
2022-07-26T03:55:45.074Z,16.15
2022-07-26T03:58:34.162Z,6.95
2022-07-26T04:01:29.272Z,8.85
2022-07-26T04:04:25.288Z,13.30
2022-07-26T04:07:03.152Z,8.82
2022-07-26T04:09:55.078Z,11.95
2022-07-26T04:12:41.705Z,12.27
2022-07-26T04:15:27.618Z,13.50
2022-07-26T04:18:17.425Z,8.85
2022-07-26T04:21:04.736Z,8.68
2022-07-26T04:23:51.133Z,8.48
2022-07-26T04:26:43.839Z,10.82
2022-07-26T04:29:39.034Z,12.50
2022-07-26T04:32:25.760Z,10.48
2022-07-26T04:37:51.738Z,15.70
2022-07-26T04:40:44.448Z,13.10
2022-07-26T04:43:35.791Z,9.68
2022-07-26T04:46:17.640Z,8.23
2022-07-26T04:48:54.761Z,12.52
2022-07-26T04:51:47.123Z,8.40
2022-07-26T04:54:23.189Z,7.53
2022-07-26T04:57:07.001Z,9.05
2022-07-26T05:00:16.815Z,10.05
2022-07-26T05:02:58.741Z,10.38
2022-07-26T05:05:43.861Z,8.90
2022-07-26T05:08:21.880Z,8.93
2022-07-26T05:11:02.037Z,8.82
2022-07-26T05:13:37.440Z,10.55
2022-07-26T05:16:11.749Z,7.47
2022-07-26T05:18:49.998Z,12.98
2022-07-26T05:21:33.746Z,11.07
2022-07-26T05:24:15.932Z,10.00
2022-07-26T05:27:04.988Z,14.57
2022-07-26T05:29:46.644Z,10.80
2022-07-26T05:32:32.827Z,13.45
2022-07-26T05:35:19.606Z,16.83
2022-07-26T05:38:08.630Z,14.95
2022-07-26T05:40:50.812Z,16.00
2022-07-26T05:43:41.126Z,12.75
2022-07-26T05:46:24.666Z,20.25
2022-07-26T05:49:15.333Z,9.25
2022-07-26T05:52:06.528Z,17.35
2022-07-26T05:54:40.007Z,13.70
2022-07-26T05:57:30.470Z,10.95
2022-07-26T06:00:17.945Z,14.70
2022-07-26T06:02:59.552Z,21.20
2022-07-26T06:05:40.584Z,17.90
2022-07-26T06:08:24.946Z,17.55
2022-07-26T06:11:01.976Z,32.05
2022-07-26T06:13:40.235Z,15.27
2022-07-26T06:16:22.959Z,16.13
2022-07-26T06:19:16.367Z,18.02
2022-07-26T06:21:57.249Z,20.48
2022-07-26T06:24:45.755Z,8.30
2022-07-26T06:27:33.726Z,13.85
2022-07-26T06:30:19.773Z,8.90
2022-07-26T06:32:49.388Z,12.70
2022-07-26T06:35:42.006Z,10.05
2022-07-26T06:38:34.556Z,18.20
2022-07-26T06:41:18.260Z,13.63
2022-07-26T06:44:03.583Z,11.45
2022-07-26T06:46:44.095Z,9.07
2022-07-26T06:49:32.921Z,10.13
2022-07-26T06:52:06.828Z,11.20
2022-07-26T06:54:47.631Z,8.95
2022-07-26T06:57:30.168Z,11.48
2022-07-26T07:00:17.907Z,11.43
2022-07-26T07:02:58.853Z,15.23
2022-07-26T07:05:45.371Z,13.05
2022-07-26T07:08:27.676Z,13.13
2022-07-26T07:11:01.920Z,10.98
2022-07-26T07:13:42.664Z,10.77
2022-07-26T07:19:01.116Z,11.20
2022-07-26T07:21:39.334Z,9.88
2022-07-26T07:24:23.837Z,17.88
2022-07-26T07:27:07.829Z,10.02
2022-07-26T07:29:53.967Z,8.15
2022-07-26T07:32:31.501Z,11.20
2022-07-26T07:35:14.896Z,16.85
2022-07-26T07:38:04.774Z,10.88
2022-07-26T07:40:43.340Z,7.95
2022-07-26T07:43:26.152Z,9.70
2022-07-26T07:48:47.001Z,8.10
2022-07-26T07:51:37.732Z,9.45
2022-07-26T07:54:19.917Z,9.23
2022-07-26T07:57:20.888Z,8.68
2022-07-26T08:00:05.413Z,9.90
2022-07-26T08:02:58.037Z,19.08
2022-07-26T08:05:40.312Z,12.10
2022-07-26T08:08:13.157Z,15.93
2022-07-26T08:11:00.768Z,9.65
2022-07-26T08:13:47.586Z,17.20
2022-07-26T08:16:36.247Z,13.57
2022-07-26T08:19:25.053Z,6.25
2022-07-26T08:22:15.278Z,9.48
2022-07-26T08:25:00.914Z,10.50
2022-07-26T08:27:40.638Z,9.70
2022-07-26T08:30:14.098Z,10.77
2022-07-26T08:32:59.896Z,9.93
2022-07-26T08:35:36.894Z,10.13
2022-07-26T08:38:20.889Z,8.60
2022-07-26T08:41:06.099Z,10.77
2022-07-26T08:43:52.314Z,14.65
2022-07-26T08:46:40.138Z,6.43
2022-07-26T08:49:22.036Z,12.10
2022-07-26T08:52:09.589Z,9.80
2022-07-26T08:54:53.865Z,10.98
2022-07-26T08:57:30.015Z,15.82
2022-07-26T09:00:20.791Z,10.20
2022-07-26T09:03:12.595Z,12.43
2022-07-26T09:05:56.432Z,12.60
2022-07-26T09:11:33.197Z,8.23
2022-07-26T09:14:36.913Z,11.30
2022-07-26T09:17:14.830Z,14.25
2022-07-26T09:20:12.616Z,11.57
2022-07-26T09:23:14.119Z,12.75
2022-07-26T09:25:52.041Z,14.32
2022-07-26T09:28:44.934Z,8.43
2022-07-26T09:31:23.969Z,10.77
2022-07-26T09:34:08.317Z,11.73
2022-07-26T09:36:57.394Z,9.75
2022-07-26T09:39:55.456Z,15.65
2022-07-26T09:43:03.082Z,18.08
2022-07-26T09:45:41.757Z,14.52
2022-07-26T09:48:59.575Z,11.48
2022-07-26T09:52:19.362Z,13.90
2022-07-26T09:55:09.933Z,8.30
2022-07-26T09:57:53.592Z,11.77
2022-07-26T10:00:35.818Z,9.00
2022-07-26T10:03:13.597Z,10.30
2022-07-26T10:05:56.920Z,12.73
2022-07-26T10:08:32.993Z,10.88
2022-07-26T10:11:14.435Z,12.23
2022-07-26T10:13:55.111Z,15.10
2022-07-26T10:16:32.569Z,8.65
2022-07-26T10:19:08.270Z,21.20
2022-07-26T10:21:35.436Z,13.63
2022-07-26T10:24:04.386Z,8.45
2022-07-26T10:26:31.473Z,14.20
2022-07-26T10:29:19.240Z,12.45
2022-07-26T10:32:08.974Z,14.15
2022-07-26T10:34:43.571Z,11.60
2022-07-26T10:37:21.914Z,19.38
2022-07-26T10:40:22.877Z,19.80
2022-07-26T10:43:39.052Z,21.17
2022-07-26T10:46:20.666Z,25.95
2022-07-26T10:49:11.775Z,25.60
2022-07-26T10:51:46.247Z,25.00
2022-07-26T10:54:24.156Z,33.33
2022-07-26T10:57:13.555Z,38.00
2022-07-26T10:59:55.781Z,34.22
2022-07-26T11:02:26.553Z,28.27
2022-07-26T11:05:19.103Z,31.08
2022-07-26T11:08:10.655Z,24.17
2022-07-26T11:11:05.018Z,29.50
2022-07-26T11:16:11.460Z,28.00
2022-07-26T11:18:46.669Z,33.63
2022-07-26T11:21:29.626Z,25.88
2022-07-26T11:24:08.519Z,18.15
2022-07-26T11:27:05.261Z,19.40
2022-07-26T11:29:51.687Z,19.95
2022-07-26T11:32:54.409Z,20.15
2022-07-26T11:35:32.958Z,18.70
2022-07-26T11:38:12.571Z,20.40
2022-07-26T11:41:05.666Z,20.38
2022-07-26T11:43:50.098Z,27.83
2022-07-26T11:46:40.207Z,18.40
2022-07-26T11:52:39.884Z,20.75
2022-07-26T11:55:15.898Z,14.43
2022-07-26T11:57:53.894Z,18.15
2022-07-26T12:00:27.247Z,19.10
2022-07-26T12:03:03.039Z,16.17
2022-07-26T12:05:34.335Z,19.70
2022-07-26T12:08:08.372Z,16.83
2022-07-26T12:10:43.841Z,15.60
2022-07-26T12:13:19.192Z,14.60
2022-07-26T12:15:52.100Z,15.60
2022-07-26T12:18:36.853Z,16.35
2022-07-26T12:21:18.020Z,16.00
2022-07-26T12:23:58.575Z,14.07
2022-07-26T12:26:42.713Z,16.08
2022-07-26T12:29:32.843Z,17.20
2022-07-26T12:32:24.549Z,18.90
2022-07-26T12:35:28.193Z,22.30
2022-07-26T12:38:10.886Z,22.95
2022-07-26T12:40:52.976Z,22.48
2022-07-26T12:43:25.555Z,25.75
2022-07-26T12:46:06.124Z,18.67
2022-07-26T12:48:47.097Z,15.00
2022-07-26T12:51:20.952Z,18.70
2022-07-26T12:53:48.411Z,17.02
2022-07-26T12:56:25.102Z,16.00
2022-07-26T12:59:17.972Z,19.20
2022-07-26T13:01:45.923Z,18.65
2022-07-26T13:04:23.654Z,18.80
2022-07-26T13:07:03.541Z,16.65
2022-07-26T13:09:44.945Z,18.25
2022-07-26T13:12:38.276Z,15.55
2022-07-26T13:15:22.467Z,14.57
2022-07-26T13:17:55.541Z,15.55
2022-07-26T13:20:30.901Z,15.73
2022-07-26T13:23:03.323Z,16.92
2022-07-26T13:25:40.497Z,14.82
2022-07-26T13:28:13.442Z,15.02
2022-07-26T13:30:56.338Z,13.75
2022-07-26T13:33:31.735Z,13.25
2022-07-26T13:36:18.282Z,12.88
2022-07-26T13:38:48.404Z,12.13
2022-07-26T13:41:38.347Z,16.13
2022-07-26T13:44:08.541Z,13.80
2022-07-26T13:46:48.755Z,13.75
2022-07-26T13:49:21.287Z,11.57
2022-07-26T13:51:59.972Z,14.43
2022-07-26T13:54:33.161Z,15.55
2022-07-26T13:57:07.826Z,17.90
2022-07-26T13:59:53.772Z,13.70
2022-07-26T14:02:34.833Z,14.52
2022-07-26T14:05:21.788Z,14.82
2022-07-26T14:07:55.288Z,12.60
2022-07-26T14:10:29.590Z,14.57
2022-07-26T14:13:07.808Z,13.30
2022-07-26T14:15:59.358Z,14.15
2022-07-26T14:18:34.659Z,12.05
2022-07-26T14:21:10.678Z,14.38
2022-07-26T14:23:58.709Z,17.15
2022-07-26T14:26:38.765Z,15.25
2022-07-26T14:29:17.938Z,18.40
2022-07-26T14:31:54.167Z,15.25
2022-07-26T14:34:34.259Z,14.73
2022-07-26T14:37:40.718Z,13.93
2022-07-26T14:40:08.786Z,14.77
2022-07-26T14:42:51.419Z,14.57
2022-07-26T14:45:44.143Z,15.88
2022-07-26T14:48:51.743Z,14.75
2022-07-26T14:51:29.785Z,13.55
2022-07-26T14:54:13.980Z,17.10
2022-07-26T14:56:52.869Z,16.35
2022-07-26T14:59:44.130Z,17.20
2022-07-26T15:02:27.102Z,15.40
2022-07-26T15:05:00.297Z,16.20
2022-07-26T15:07:32.736Z,18.40
2022-07-26T15:10:08.918Z,16.55
2022-07-26T15:12:37.916Z,18.38
2022-07-26T15:15:21.820Z,18.00
2022-07-26T15:18:09.710Z,16.10
2022-07-26T15:20:56.191Z,16.67
2022-07-26T15:23:36.405Z,15.93
2022-07-26T15:26:18.076Z,16.35
2022-07-26T15:28:59.357Z,17.38
2022-07-26T15:31:37.315Z,15.63
2022-07-26T15:34:19.716Z,16.05
2022-07-26T15:36:58.134Z,15.57
2022-07-26T15:39:30.569Z,16.20
2022-07-26T15:42:15.227Z,14.95
2022-07-26T15:45:00.611Z,13.85
2022-07-26T15:47:57.335Z,17.08
2022-07-26T15:50:53.680Z,16.80
2022-07-26T15:53:34.274Z,18.33
2022-07-26T15:56:04.902Z,16.58
2022-07-26T15:58:48.803Z,13.95
2022-07-26T16:01:19.114Z,14.52
2022-07-26T16:03:55.428Z,15.88
2022-07-26T16:06:25.903Z,17.38
2022-07-26T16:09:17.740Z,15.50
2022-07-26T16:12:06.139Z,17.75
2022-07-26T16:14:44.540Z,17.23
2022-07-26T16:17:19.877Z,15.85
2022-07-26T16:19:54.924Z,15.77
2022-07-26T16:22:33.608Z,19.25
2022-07-26T16:25:08.942Z,16.38
2022-07-26T16:27:45.012Z,19.20
2022-07-26T16:33:26.019Z,17.45
2022-07-26T16:35:55.924Z,16.88
2022-07-26T16:38:40.891Z,18.35
2022-07-26T16:41:17.587Z,18.23
2022-07-26T16:43:55.625Z,18.83
2022-07-26T16:46:23.204Z,19.65
2022-07-26T16:49:01.271Z,19.38
2022-07-26T16:51:35.875Z,20.15
2022-07-26T16:54:14.386Z,22.05
2022-07-26T16:56:41.371Z,23.52
2022-07-26T16:59:20.093Z,22.45
2022-07-26T17:02:01.665Z,21.70
2022-07-26T17:04:34.911Z,24.23
2022-07-26T17:07:25.035Z,22.02
2022-07-26T17:09:57.769Z,23.60
2022-07-26T17:12:25.965Z,21.98
2022-07-26T17:15:01.193Z,24.23
2022-07-26T17:17:48.698Z,22.75
2022-07-26T17:20:37.129Z,25.85
2022-07-26T17:23:12.350Z,24.27
2022-07-26T17:25:53.853Z,23.15
2022-07-26T17:28:51.885Z,27.50
2022-07-26T17:31:36.229Z,27.05
2022-07-26T17:34:18.870Z,21.10
2022-07-26T17:37:03.137Z,24.65
2022-07-26T17:39:58.747Z,23.42
2022-07-26T17:42:28.160Z,22.65
2022-07-26T17:44:59.665Z,23.05
2022-07-26T17:47:35.920Z,28.23
2022-07-26T17:50:36.026Z,24.30
2022-07-26T17:53:21.205Z,22.73
2022-07-26T17:56:18.444Z,25.45
2022-07-26T17:58:58.912Z,24.40
2022-07-26T18:01:31.696Z,27.45
2022-07-26T18:04:07.978Z,33.38
2022-07-26T18:06:56.977Z,28.88
2022-07-26T18:09:42.562Z,24.77
2022-07-26T18:12:20.274Z,26.52
2022-07-26T18:15:27.563Z,27.63
2022-07-26T18:18:24.118Z,24.42
2022-07-26T18:20:53.473Z,28.15
2022-07-26T18:23:32.142Z,26.33
2022-07-26T18:26:13.038Z,28.40
2022-07-26T18:28:49.704Z,26.65
2022-07-26T18:31:42.853Z,24.98
2022-07-26T18:34:18.985Z,26.45
2022-07-26T18:36:55.142Z,27.02
2022-07-26T18:39:33.385Z,25.15
2022-07-26T18:42:06.353Z,29.63
2022-07-26T18:44:43.938Z,27.85
2022-07-26T18:50:17.434Z,25.95
2022-07-26T18:52:45.128Z,29.75
2022-07-26T18:55:26.605Z,27.33
2022-07-26T18:58:03.345Z,28.27
2022-07-26T19:00:49.864Z,28.80
2022-07-26T19:03:41.604Z,26.23
2022-07-26T19:06:16.966Z,26.85
2022-07-26T19:08:54.817Z,25.55
2022-07-26T19:11:39.043Z,23.30
2022-07-26T19:14:14.628Z,26.38
2022-07-26T19:16:50.281Z,22.02
2022-07-26T19:19:31.335Z,27.60
2022-07-26T19:22:14.831Z,22.60
2022-07-26T19:25:03.913Z,25.50
2022-07-26T19:27:42.634Z,24.02
2022-07-26T19:30:26.365Z,21.85
2022-07-26T19:33:17.031Z,22.83
2022-07-26T19:35:52.447Z,23.15
2022-07-26T19:38:41.646Z,21.92
2022-07-26T19:41:23.414Z,23.90
2022-07-26T19:44:09.542Z,22.13
2022-07-26T19:46:57.526Z,21.85
2022-07-26T19:49:30.324Z,21.50
2022-07-26T19:52:00.318Z,20.13
2022-07-26T19:54:36.256Z,21.20
2022-07-26T19:57:16.934Z,19.70
2022-07-26T20:00:02.553Z,20.95
2022-07-26T20:02:58.789Z,20.77
2022-07-26T20:05:43.069Z,18.77
2022-07-26T20:08:27.891Z,17.63
2022-07-26T20:11:22.077Z,16.10
2022-07-26T20:13:57.468Z,18.00
2022-07-26T20:16:27.515Z,15.82
2022-07-26T20:18:54.712Z,18.48
2022-07-26T20:21:27.979Z,15.90
2022-07-26T20:24:03.891Z,15.52
2022-07-26T20:26:39.947Z,16.55
2022-07-26T20:29:25.959Z,17.38
2022-07-26T20:32:09.365Z,19.70
2022-07-26T20:34:41.731Z,17.15
2022-07-26T20:37:32.899Z,11.93
2022-07-26T20:40:12.957Z,11.57
2022-07-26T20:42:56.883Z,12.30
2022-07-26T20:45:30.115Z,14.60
2022-07-26T20:48:12.057Z,11.40
2022-07-26T20:51:04.093Z,9.80
2022-07-26T20:53:39.939Z,10.70
2022-07-26T20:56:21.821Z,15.63
2022-07-26T20:59:12.223Z,11.32
2022-07-26T21:01:39.604Z,11.50
2022-07-26T21:04:14.069Z,10.60
2022-07-26T21:06:45.184Z,10.00
2022-07-26T21:09:27.217Z,9.88
2022-07-26T21:12:11.052Z,10.00
2022-07-26T21:14:57.740Z,11.43
2022-07-26T21:17:46.617Z,9.45
2022-07-26T21:20:27.092Z,8.95
2022-07-26T21:23:17.663Z,9.00
2022-07-26T21:25:57.913Z,9.77
2022-07-26T21:28:40.547Z,9.55
2022-07-26T21:31:24.076Z,9.23
2022-07-26T21:34:05.300Z,9.05
2022-07-26T21:36:46.557Z,8.93
2022-07-26T21:39:41.037Z,11.80
2022-07-26T21:42:26.827Z,11.57
2022-07-26T21:45:07.889Z,8.13
2022-07-26T21:47:46.904Z,8.95
2022-07-26T21:50:25.431Z,10.50
2022-07-26T21:52:55.219Z,9.57
2022-07-26T21:55:34.938Z,9.05
2022-07-26T21:58:12.917Z,7.93
2022-07-26T22:00:56.349Z,7.68
2022-07-26T22:03:40.318Z,7.80
2022-07-26T22:06:21.977Z,8.80
2022-07-26T22:11:41.901Z,7.13
2022-07-26T22:14:32.736Z,6.93
2022-07-26T22:17:08.637Z,8.25
2022-07-26T22:19:51.961Z,7.95
2022-07-26T22:22:33.655Z,7.25
2022-07-26T22:25:20.006Z,7.25
2022-07-26T22:28:02.077Z,7.78
2022-07-26T22:30:37.608Z,6.30
2022-07-26T22:33:12.416Z,6.78
2022-07-26T22:35:53.026Z,7.47
2022-07-26T22:38:36.556Z,8.30
2022-07-26T22:41:23.829Z,7.30
2022-07-26T22:44:07.396Z,7.22
2022-07-26T22:46:58.814Z,6.55
2022-07-26T22:49:32.169Z,6.50
2022-07-26T22:52:18.498Z,9.63
2022-07-26T22:54:53.815Z,7.05
2022-07-26T22:57:42.168Z,6.63
2022-07-26T23:00:30.094Z,8.10
2022-07-26T23:02:57.149Z,10.32
2022-07-26T23:05:47.479Z,8.15
2022-07-26T23:08:47.727Z,7.07
2022-07-26T23:11:32.861Z,8.80
2022-07-26T23:14:22.726Z,10.23
2022-07-26T23:17:08.977Z,9.50
2022-07-26T23:19:56.095Z,8.55
2022-07-26T23:22:43.387Z,9.52
2022-07-26T23:25:27.462Z,9.02
2022-07-26T23:28:08.586Z,8.88
2022-07-26T23:31:13.810Z,8.68
2022-07-26T23:33:57.017Z,8.93
2022-07-26T23:36:40.411Z,10.48
2022-07-26T23:39:17.102Z,11.13
2022-07-26T23:44:52.617Z,11.40
2022-07-26T23:47:37.927Z,10.80
2022-07-26T23:50:08.091Z,12.48
2022-07-26T23:52:48.802Z,14.63
2022-07-26T23:55:35.809Z,12.07
2022-07-26T23:58:27.918Z,11.15
